createdAt,value
2018-08-20T00:01:24.960Z,32.70
2018-08-20T00:03:56.958Z,32.71
2018-08-20T00:06:30.518Z,32.71
2018-08-20T00:09:02.397Z,32.68
2018-08-20T00:11:33.906Z,32.64
2018-08-20T00:14:05.787Z,32.64
2018-08-20T00:16:37.553Z,32.68
2018-08-20T00:19:14.292Z,32.68
2018-08-20T00:21:46.471Z,32.65
2018-08-20T00:24:18.387Z,32.64
2018-08-20T00:26:51.041Z,32.63
2018-08-20T00:29:22.950Z,32.60
2018-08-20T00:31:54.454Z,32.58
2018-08-20T00:34:26.373Z,32.61
2018-08-20T00:36:58.199Z,32.60
2018-08-20T00:39:30.165Z,32.62
2018-08-20T00:42:01.975Z,32.61
2018-08-20T00:44:33.626Z,32.58
2018-08-20T00:47:05.380Z,32.61
2018-08-20T00:49:37.130Z,32.62
2018-08-20T00:52:09.076Z,32.56
2018-08-20T00:54:41.109Z,32.55
2018-08-20T00:57:12.903Z,32.57
2018-08-20T00:59:44.596Z,32.57
2018-08-20T01:02:21.134Z,32.56
2018-08-20T01:04:53.024Z,32.55
2018-08-20T01:07:24.706Z,32.56
2018-08-20T01:09:57.265Z,32.58
2018-08-20T01:12:29.571Z,32.59
2018-08-20T01:15:01.602Z,32.56
2018-08-20T01:17:32.996Z,32.57
2018-08-20T01:20:04.960Z,32.56
2018-08-20T01:22:36.610Z,32.46
2018-08-20T01:25:08.399Z,32.45
2018-08-20T01:27:40.953Z,32.51
2018-08-20T01:30:13.009Z,32.53
2018-08-20T01:32:44.591Z,32.48
2018-08-20T01:35:25.478Z,32.50
2018-08-20T01:37:57.397Z,32.49
2018-08-20T01:40:30.481Z,32.50
2018-08-20T01:43:02.342Z,32.49
2018-08-20T01:45:33.957Z,32.48
2018-08-20T01:48:05.575Z,32.49
2018-08-20T01:50:37.821Z,32.48
2018-08-20T01:53:09.634Z,32.48
2018-08-20T01:55:41.542Z,32.45
2018-08-20T01:58:12.971Z,32.47
2018-08-20T02:00:44.986Z,32.48
2018-08-20T02:03:16.732Z,32.48
2018-08-20T02:05:49.350Z,32.46
2018-08-20T02:08:20.817Z,32.45
2018-08-20T02:10:52.854Z,32.43
2018-08-20T02:13:25.570Z,32.44
2018-08-20T02:15:58.170Z,32.46
2018-08-20T02:18:30.207Z,32.45
2018-08-20T02:21:02.103Z,32.47
2018-08-20T02:23:33.948Z,32.45
2018-08-20T02:26:05.605Z,32.48
2018-08-20T02:28:37.675Z,32.46
2018-08-20T02:31:09.344Z,32.47
2018-08-20T02:33:40.710Z,32.48
2018-08-20T02:36:12.686Z,32.50
2018-08-20T02:38:44.760Z,32.48
2018-08-20T02:41:16.696Z,32.46
2018-08-20T02:43:48.374Z,32.49
2018-08-20T02:46:24.881Z,32.48
2018-08-20T02:48:56.819Z,32.46
2018-08-20T02:51:28.708Z,32.47
2018-08-20T02:54:00.284Z,32.46
2018-08-20T02:56:32.078Z,32.46
2018-08-20T02:59:04.280Z,32.50
2018-08-20T03:01:36.266Z,32.47
2018-08-20T03:04:08.524Z,32.49
2018-08-20T03:06:40.769Z,32.48
2018-08-20T03:09:15.001Z,32.53
2018-08-20T03:11:47.292Z,32.51
2018-08-20T03:14:19.310Z,32.52
2018-08-20T03:16:52.185Z,32.51
2018-08-20T03:19:23.837Z,32.47
2018-08-20T03:21:56.196Z,32.49
2018-08-20T03:24:28.063Z,32.51
2018-08-20T03:27:00.093Z,32.51
2018-08-20T03:29:32.207Z,32.47
2018-08-20T03:32:04.246Z,32.48
2018-08-20T03:34:35.598Z,32.48
2018-08-20T03:37:07.704Z,32.48
2018-08-20T03:39:39.275Z,32.49
2018-08-20T03:42:11.234Z,32.54
2018-08-20T03:44:42.966Z,32.53
2018-08-20T03:47:14.791Z,32.51
2018-08-20T03:49:46.490Z,32.55
2018-08-20T03:52:18.526Z,32.56
2018-08-20T03:54:50.044Z,32.54
2018-08-20T03:57:21.927Z,32.54
2018-08-20T03:59:53.544Z,32.54
2018-08-20T04:02:25.629Z,32.55
2018-08-20T04:04:57.185Z,32.51
2018-08-20T04:07:28.786Z,32.54
2018-08-20T04:10:00.367Z,32.52
2018-08-20T04:12:32.308Z,32.55
2018-08-20T04:15:04.661Z,32.54
2018-08-20T04:17:37.383Z,32.56
2018-08-20T04:20:09.101Z,32.54
2018-08-20T04:22:40.882Z,32.58
2018-08-20T04:25:12.587Z,32.57
2018-08-20T04:27:44.445Z,32.54
2018-08-20T04:30:16.453Z,32.43
2018-08-20T04:32:48.413Z,32.56
2018-08-20T04:35:20.162Z,32.54
2018-08-20T04:37:52.104Z,32.51
2018-08-20T04:40:24.711Z,32.53
2018-08-20T04:42:56.567Z,32.55
2018-08-20T04:45:28.214Z,32.60
2018-08-20T04:48:00.126Z,32.48
2018-08-20T04:50:31.703Z,32.39
2018-08-20T04:53:03.267Z,32.33
2018-08-20T04:55:35.088Z,32.27
2018-08-20T04:58:07.270Z,32.47
2018-08-20T05:00:39.067Z,32.52
2018-08-20T05:03:20.051Z,32.55
2018-08-20T05:05:52.321Z,32.57
2018-08-20T05:08:26.032Z,32.57
2018-08-20T05:11:02.424Z,32.57
2018-08-20T05:13:37.862Z,32.58
2018-08-20T05:16:16.445Z,32.59
2018-08-20T05:18:50.703Z,32.59
2018-08-20T05:21:25.668Z,32.60
2018-08-20T05:23:58.180Z,32.59
2018-08-20T05:26:29.768Z,32.60
2018-08-20T05:29:01.454Z,32.61
2018-08-20T05:31:32.911Z,32.64
2018-08-20T05:34:05.625Z,32.66
2018-08-20T05:36:38.309Z,32.67
2018-08-20T05:39:11.667Z,32.67
2018-08-20T05:41:43.690Z,32.66
2018-08-20T05:44:16.550Z,32.65
2018-08-20T05:46:48.389Z,32.67
2018-08-20T05:49:19.999Z,32.68
2018-08-20T05:51:52.309Z,32.68
2018-08-20T05:54:24.371Z,32.65
2018-08-20T05:57:00.667Z,32.66
2018-08-20T05:59:33.771Z,32.66
2018-08-20T06:02:06.816Z,32.69
2018-08-20T06:04:38.579Z,32.62
2018-08-20T06:07:11.009Z,32.61
2018-08-20T06:09:42.753Z,32.68
2018-08-20T06:12:14.775Z,32.70
2018-08-20T06:14:47.745Z,32.70
2018-08-20T06:17:20.496Z,32.71
2018-08-20T06:19:52.335Z,32.73
2018-08-20T06:22:24.408Z,32.74
2018-08-20T06:24:56.824Z,32.73
2018-08-20T06:27:28.938Z,32.74
2018-08-20T06:30:00.855Z,32.74
2018-08-20T06:32:32.549Z,32.74
2018-08-20T06:35:04.724Z,32.75
2018-08-20T06:37:36.417Z,32.76
2018-08-20T06:40:09.792Z,32.74
2018-08-20T06:42:41.656Z,32.75
2018-08-20T06:45:17.917Z,32.78
2018-08-20T06:47:49.446Z,32.79
2018-08-20T06:50:21.129Z,32.80
2018-08-20T06:52:52.930Z,32.81
2018-08-20T06:56:27.806Z,32.84
2018-08-20T06:58:59.326Z,32.85
2018-08-20T07:01:31.382Z,32.85
2018-08-20T07:04:03.028Z,32.78
2018-08-20T07:06:34.826Z,32.80
2018-08-20T07:09:07.636Z,32.84
2018-08-20T07:11:39.530Z,32.87
2018-08-20T07:14:11.500Z,32.88
2018-08-20T07:16:43.411Z,32.90
2018-08-20T07:19:15.412Z,32.91
2018-08-20T07:21:46.969Z,32.93
2018-08-20T07:24:18.713Z,32.93
2018-08-20T07:26:50.686Z,32.94
2018-08-20T07:29:42.174Z,32.95
2018-08-20T07:32:15.220Z,32.98
2018-08-20T07:34:47.576Z,32.97
2018-08-20T07:37:19.391Z,32.98
2018-08-20T07:39:51.335Z,32.97
2018-08-20T07:42:23.443Z,32.98
2018-08-20T07:44:55.272Z,33.00
2018-08-20T07:47:27.232Z,33.00
2018-08-20T07:49:59.035Z,33.01
2018-08-20T07:52:32.311Z,33.04
2018-08-20T07:55:04.007Z,33.05
2018-08-20T07:57:35.547Z,33.05
2018-08-20T08:00:08.307Z,33.07
2018-08-20T08:02:41.162Z,33.08
2018-08-20T08:05:13.420Z,33.09
2018-08-20T08:07:45.407Z,33.09
2018-08-20T08:10:18.286Z,33.10
2018-08-20T08:12:51.296Z,33.11
2018-08-20T08:15:23.230Z,33.12
2018-08-20T08:17:55.477Z,33.12
2018-08-20T08:20:27.099Z,33.14
2018-08-20T08:22:59.682Z,33.18
2018-08-20T08:25:31.439Z,33.18
2018-08-20T08:28:03.518Z,33.18
2018-08-20T08:30:35.548Z,33.16
2018-08-20T08:33:07.717Z,33.14
2018-08-20T08:35:39.245Z,33.16
2018-08-20T08:38:11.462Z,33.19
2018-08-20T08:40:44.615Z,33.18
2018-08-20T08:43:17.489Z,33.15
2018-08-20T08:45:49.260Z,33.18
2018-08-20T08:48:21.586Z,33.18
2018-08-20T08:50:53.627Z,33.20
2018-08-20T08:53:25.941Z,33.21
2018-08-20T08:55:57.814Z,33.21
2018-08-20T08:58:30.655Z,33.21
2018-08-20T09:01:02.533Z,33.21
2018-08-20T09:03:35.041Z,33.20
2018-08-20T09:06:07.140Z,33.21
2018-08-20T09:08:39.242Z,33.21
2018-08-20T09:11:11.215Z,33.20
2018-08-20T09:13:43.130Z,33.22
2018-08-20T09:16:14.424Z,33.22
2018-08-20T09:18:48.243Z,33.19
2018-08-20T09:21:19.988Z,33.15
2018-08-20T09:23:52.127Z,33.19
2018-08-20T09:26:24.024Z,33.18
2018-08-20T09:28:55.676Z,33.20
2018-08-20T09:31:27.603Z,33.23
2018-08-20T09:33:59.708Z,33.24
2018-08-20T09:36:31.266Z,33.23
2018-08-20T09:39:03.626Z,33.24
2018-08-20T09:41:35.698Z,33.23
2018-08-20T09:44:07.714Z,33.22
2018-08-20T09:46:39.605Z,33.23
2018-08-20T09:49:11.456Z,33.22
2018-08-20T09:51:43.718Z,33.22
2018-08-20T09:54:15.633Z,33.17
2018-08-20T09:56:47.297Z,33.14
2018-08-20T09:59:19.126Z,33.04
2018-08-20T10:01:51.170Z,33.05
2018-08-20T10:04:22.842Z,33.06
2018-08-20T10:06:55.104Z,33.02
2018-08-20T10:09:27.021Z,32.95
2018-08-20T10:11:59.138Z,32.87
2018-08-20T10:14:31.444Z,32.87
2018-08-20T10:17:03.565Z,32.91
2018-08-20T10:19:37.078Z,32.93
2018-08-20T10:22:09.335Z,32.92
2018-08-20T10:24:41.630Z,32.91
2018-08-20T10:27:13.820Z,32.91
2018-08-20T10:29:45.987Z,32.92
2018-08-20T10:32:17.731Z,32.90
2018-08-20T10:34:49.979Z,32.90
2018-08-20T10:37:21.753Z,32.91
2018-08-20T10:39:53.575Z,32.89
2018-08-20T10:42:25.621Z,32.91
2018-08-20T10:45:02.657Z,32.90
2018-08-20T10:47:34.618Z,32.89
2018-08-20T10:50:06.988Z,32.88
2018-08-20T10:52:39.192Z,32.88
2018-08-20T10:55:11.348Z,32.87
2018-08-20T10:57:43.410Z,32.90
2018-08-20T11:00:16.121Z,32.89
2018-08-20T11:02:47.895Z,32.85
2018-08-20T11:05:21.019Z,32.86
2018-08-20T11:07:52.536Z,32.83
2018-08-20T11:10:24.372Z,32.80
2018-08-20T11:12:56.309Z,32.73
2018-08-20T11:15:28.438Z,32.69
2018-08-20T11:18:00.158Z,32.77
2018-08-20T11:20:32.596Z,32.81
2018-08-20T11:23:05.255Z,32.85
2018-08-20T11:25:37.352Z,32.86
2018-08-20T11:28:09.648Z,32.86
2018-08-20T11:30:41.959Z,32.83
2018-08-20T11:33:13.923Z,32.83
2018-08-20T11:35:45.807Z,32.86
2018-08-20T11:38:17.367Z,32.89
2018-08-20T11:40:49.429Z,32.88
2018-08-20T11:43:21.431Z,32.86
2018-08-20T11:45:53.676Z,32.89
2018-08-20T11:48:25.485Z,32.84
2018-08-20T11:50:57.404Z,32.86
2018-08-20T11:53:29.294Z,32.86
2018-08-20T11:56:01.852Z,32.84
2018-08-20T11:58:34.161Z,32.77
2018-08-20T12:01:07.304Z,32.77
2018-08-20T12:03:39.399Z,32.80
2018-08-20T12:06:11.428Z,32.79
2018-08-20T12:08:44.353Z,32.81
2018-08-20T12:11:15.986Z,32.84
2018-08-20T12:13:47.790Z,32.85
2018-08-20T12:16:20.190Z,32.84
2018-08-20T12:18:52.653Z,32.85
2018-08-20T12:21:26.068Z,32.85
2018-08-20T12:23:58.353Z,32.86
2018-08-20T12:26:30.839Z,32.87
2018-08-20T12:29:02.547Z,32.81
2018-08-20T12:31:34.814Z,32.82
2018-08-20T12:34:06.526Z,32.83
2018-08-20T12:36:39.091Z,32.82
2018-08-20T12:39:10.874Z,32.82
2018-08-20T12:41:43.009Z,32.83
2018-08-20T12:44:14.941Z,32.82
2018-08-20T12:46:47.012Z,32.84
2018-08-20T12:49:18.821Z,32.85
2018-08-20T12:51:50.525Z,32.85
2018-08-20T12:54:22.199Z,32.83
2018-08-20T12:56:53.975Z,32.84
2018-08-20T12:59:25.423Z,32.86
2018-08-20T13:01:57.832Z,32.86
2018-08-20T13:11:32.075Z,32.83
2018-08-20T13:14:05.682Z,32.86
2018-08-20T13:16:37.567Z,32.86
2018-08-20T13:19:09.354Z,32.85
2018-08-20T13:21:41.858Z,32.87
2018-08-20T13:24:13.538Z,32.85
2018-08-20T13:26:45.570Z,32.85
2018-08-20T13:29:17.454Z,32.82
2018-08-20T13:31:49.416Z,32.85
2018-08-20T13:34:21.115Z,32.86
2018-08-20T13:36:52.912Z,32.82
2018-08-20T13:39:25.196Z,32.85
2018-08-20T13:41:57.120Z,32.87
2018-08-20T13:44:29.490Z,32.89
2018-08-20T13:47:01.794Z,32.86
2018-08-20T13:49:33.433Z,32.86
2018-08-20T13:52:05.472Z,32.87
2018-08-20T13:54:37.050Z,32.86
2018-08-20T13:57:08.803Z,32.85
2018-08-20T13:59:40.432Z,32.84
2018-08-20T14:02:18.888Z,32.83
2018-08-20T14:04:50.693Z,32.86
2018-08-20T14:07:22.577Z,32.87
2018-08-20T14:09:54.351Z,32.84
2018-08-20T14:12:26.112Z,32.87
2018-08-20T14:14:57.875Z,32.87
2018-08-20T14:17:29.243Z,32.83
2018-08-20T14:20:00.625Z,32.83
2018-08-20T14:22:34.065Z,32.86
2018-08-20T14:25:05.860Z,32.85
2018-08-20T14:27:38.151Z,32.83
2018-08-20T14:30:13.175Z,32.82
2018-08-20T14:32:45.651Z,32.82
2018-08-20T14:35:17.314Z,32.63
2018-08-20T14:37:49.512Z,32.74
2018-08-20T14:40:21.848Z,32.80
2018-08-20T14:42:53.826Z,32.85
2018-08-20T14:45:28.764Z,32.83
2018-08-20T14:48:00.972Z,32.81
2018-08-20T14:50:32.808Z,32.77
2018-08-20T14:53:05.223Z,32.79
2018-08-20T14:55:37.061Z,32.77
2018-08-20T14:58:09.628Z,32.70
2018-08-20T15:00:41.755Z,32.77
2018-08-20T15:03:14.034Z,32.79
2018-08-20T15:05:46.171Z,32.77
2018-08-20T15:08:18.307Z,32.81
2018-08-20T15:10:50.491Z,32.79
2018-08-20T15:13:22.806Z,32.80
2018-08-20T15:15:54.796Z,32.81
2018-08-20T15:18:27.387Z,32.77
2018-08-20T15:20:59.818Z,32.78
2018-08-20T15:23:32.365Z,32.76
2018-08-20T15:26:04.252Z,32.72
2018-08-20T15:28:38.768Z,32.75
2018-08-20T15:31:12.114Z,32.74
2018-08-20T15:33:44.234Z,32.75
2018-08-20T15:36:17.248Z,32.75
2018-08-20T15:38:49.110Z,32.75
2018-08-20T15:41:21.229Z,32.75
2018-08-20T15:43:53.218Z,32.75
2018-08-20T15:46:25.054Z,32.73
2018-08-20T15:48:58.215Z,32.71
2018-08-20T15:51:31.143Z,32.73
2018-08-20T15:54:03.366Z,32.74
2018-08-20T15:56:35.451Z,32.66
2018-08-20T15:59:08.042Z,32.64
2018-08-20T16:01:39.948Z,32.66
2018-08-20T16:04:12.704Z,32.68
2018-08-20T16:06:44.716Z,32.69
2018-08-20T16:09:16.876Z,32.71
2018-08-20T16:11:49.796Z,32.71
2018-08-20T16:14:21.923Z,32.71
2018-08-20T16:16:54.963Z,32.71
2018-08-20T16:19:27.016Z,32.73
2018-08-20T16:21:59.136Z,32.75
2018-08-20T16:24:31.133Z,32.75
2018-08-20T16:27:02.827Z,32.76
2018-08-20T16:29:34.764Z,32.74
2018-08-20T16:32:07.697Z,32.71
2018-08-20T16:34:40.002Z,32.72
2018-08-20T16:37:11.721Z,32.70
2018-08-20T16:39:43.964Z,32.70
2018-08-20T16:42:15.914Z,32.73
2018-08-20T16:44:47.829Z,32.72
2018-08-20T16:47:20.750Z,32.70
2018-08-20T16:49:52.827Z,32.67
2018-08-20T16:52:24.544Z,32.67
2018-08-20T16:54:56.717Z,32.67
2018-08-20T16:57:28.733Z,32.69
2018-08-20T17:00:00.730Z,32.69
2018-08-20T17:02:32.855Z,32.69
2018-08-20T17:05:05.258Z,32.69
2018-08-20T17:07:36.836Z,32.71
2018-08-20T17:10:09.995Z,32.71
2018-08-20T17:12:43.325Z,32.71
2018-08-20T17:15:19.135Z,32.71
2018-08-20T17:17:51.001Z,32.72
2018-08-20T17:20:23.165Z,32.73
2018-08-20T17:22:59.813Z,32.70
2018-08-20T17:25:31.805Z,32.70
2018-08-20T17:28:04.370Z,32.70
2018-08-20T17:30:36.165Z,32.70
2018-08-20T17:33:09.423Z,32.69
2018-08-20T17:35:43.726Z,32.67
2018-08-20T17:38:15.709Z,32.68
2018-08-20T17:40:47.614Z,32.67
2018-08-20T17:43:20.141Z,32.64
2018-08-20T17:45:52.424Z,32.66
2018-08-20T17:48:30.050Z,32.68
2018-08-20T17:51:01.888Z,32.69
2018-08-20T17:53:43.761Z,32.69
2018-08-20T17:56:15.403Z,32.69
2018-08-20T17:58:47.976Z,32.70
2018-08-20T18:01:19.990Z,32.69
2018-08-20T18:03:51.814Z,32.66
2018-08-20T18:06:28.908Z,32.63
2018-08-20T18:09:00.602Z,32.65
2018-08-20T18:11:32.785Z,32.67
2018-08-20T18:14:05.468Z,32.66
2018-08-20T18:16:37.332Z,32.66
2018-08-20T18:19:08.975Z,32.67
2018-08-20T18:21:40.695Z,32.66
2018-08-20T18:24:19.356Z,32.66
2018-08-20T18:26:55.044Z,32.66
2018-08-20T18:29:26.935Z,32.66
2018-08-20T18:32:01.716Z,32.68
2018-08-20T18:34:33.871Z,32.66
2018-08-20T18:37:06.314Z,32.66
2018-08-20T18:39:38.106Z,32.67
2018-08-20T18:42:17.783Z,32.68
2018-08-20T18:44:50.242Z,32.65
2018-08-20T18:47:21.847Z,32.66
2018-08-20T18:50:00.068Z,32.66
2018-08-20T18:52:32.784Z,32.66
2018-08-20T18:55:04.917Z,32.66
2018-08-20T18:57:38.373Z,32.64
2018-08-20T19:00:16.466Z,32.64
2018-08-20T19:02:55.566Z,32.66
2018-08-20T19:05:27.326Z,32.65
2018-08-20T19:07:59.057Z,32.62
2018-08-20T19:10:33.019Z,32.63
2018-08-20T19:13:05.214Z,32.61
2018-08-20T19:15:47.011Z,32.63
2018-08-20T19:18:24.477Z,32.66
2018-08-20T19:20:55.990Z,32.64
2018-08-20T19:23:28.103Z,32.63
2018-08-20T19:26:01.027Z,32.64
2018-08-20T19:28:33.931Z,32.65
2018-08-20T19:31:05.826Z,32.63
2018-08-20T19:33:37.814Z,32.60
2018-08-20T19:36:10.167Z,32.59
2018-08-20T19:38:42.217Z,32.58
2018-08-20T19:41:15.053Z,32.59
2018-08-20T19:43:51.202Z,32.60
2018-08-20T19:46:29.071Z,32.60
2018-08-20T19:49:15.053Z,32.60
2018-08-20T19:51:47.283Z,32.60
2018-08-20T19:54:19.150Z,32.59
2018-08-20T19:56:51.261Z,32.58
2018-08-20T19:59:28.146Z,32.58
2018-08-20T20:02:00.263Z,32.59
2018-08-20T20:04:32.473Z,32.57
2018-08-20T20:07:04.667Z,32.58
2018-08-20T20:09:39.355Z,32.59
2018-08-20T20:12:11.242Z,32.59
2018-08-20T20:14:49.412Z,32.58
2018-08-20T20:17:21.826Z,32.57
2018-08-20T20:19:53.712Z,32.57
2018-08-20T20:22:25.665Z,32.59
2018-08-20T20:24:57.910Z,32.60
2018-08-20T20:27:30.281Z,32.54
2018-08-20T20:30:03.188Z,32.56
2018-08-20T20:32:35.306Z,32.55
2018-08-20T20:35:08.251Z,32.55
2018-08-20T20:37:40.465Z,32.54
2018-08-20T20:40:12.842Z,32.53
2018-08-20T20:42:44.963Z,32.57
2018-08-20T20:45:16.965Z,32.55
2018-08-20T20:47:48.907Z,32.54
2018-08-20T20:50:21.210Z,32.56
2018-08-20T20:52:53.845Z,32.56
2018-08-20T20:55:26.239Z,32.52
2018-08-20T20:57:58.391Z,32.53
2018-08-20T21:00:30.670Z,32.53
2018-08-20T21:03:07.484Z,32.52
2018-08-20T21:05:39.877Z,32.53
2018-08-20T21:08:11.987Z,32.50
2018-08-20T21:10:50.317Z,32.52
2018-08-20T21:13:22.240Z,32.50
2018-08-20T21:15:59.793Z,32.50
2018-08-20T21:18:32.918Z,32.50
2018-08-20T21:21:04.761Z,32.49
2018-08-20T21:23:41.920Z,32.49
2018-08-20T21:26:13.962Z,32.49
2018-08-20T21:28:47.573Z,32.49
2018-08-20T21:31:23.388Z,32.51
2018-08-20T21:34:02.005Z,32.48
2018-08-20T21:36:34.204Z,32.51
2018-08-20T21:39:09.175Z,32.48
2018-08-20T21:41:40.913Z,32.49
2018-08-20T21:44:12.989Z,32.48
2018-08-20T21:46:44.924Z,32.47
2018-08-20T21:49:17.230Z,32.47
2018-08-20T21:51:54.836Z,32.44
2018-08-20T21:54:31.466Z,32.46
2018-08-20T21:57:05.494Z,32.46
2018-08-20T21:59:38.454Z,32.44
2018-08-20T22:02:10.939Z,32.43
2018-08-20T22:04:42.827Z,32.45
2018-08-20T22:07:14.436Z,32.43
2018-08-20T22:09:46.224Z,32.45
2018-08-20T22:12:18.155Z,32.41
2018-08-20T22:14:50.119Z,32.40
2018-08-20T22:17:26.732Z,32.39
2018-08-20T22:19:58.622Z,32.43
2018-08-20T22:22:30.825Z,32.43
2018-08-20T22:25:03.609Z,32.42
2018-08-20T22:28:07.648Z,32.42
2018-08-20T22:30:42.362Z,32.40
2018-08-20T22:33:14.981Z,32.40
2018-08-20T22:35:47.311Z,32.41
2018-08-20T22:38:19.092Z,32.40
2018-08-20T22:40:51.704Z,32.44
2018-08-20T22:43:24.110Z,32.42
2018-08-20T22:45:56.300Z,32.38
2018-08-20T22:48:28.078Z,32.33
2018-08-20T22:51:17.879Z,32.36
2018-08-20T22:53:52.964Z,32.37
2018-08-20T22:56:30.588Z,32.41
2018-08-20T22:59:09.894Z,32.39
2018-08-20T23:01:42.066Z,32.35
2018-08-20T23:04:14.292Z,32.36
2018-08-20T23:06:46.100Z,32.35
2018-08-20T23:09:28.454Z,32.36
2018-08-20T23:12:00.580Z,32.32
2018-08-20T23:14:34.269Z,32.35
2018-08-20T23:17:06.395Z,32.31
2018-08-20T23:19:38.500Z,32.31
2018-08-20T23:22:10.319Z,32.33
2018-08-20T23:24:47.216Z,32.32
2018-08-20T23:27:20.761Z,32.35
2018-08-20T23:29:52.904Z,32.34
2018-08-20T23:32:25.324Z,32.30
2018-08-20T23:34:59.547Z,32.32
2018-08-20T23:37:31.187Z,32.33
2018-08-20T23:40:03.296Z,32.31
2018-08-20T23:42:35.274Z,32.30
2018-08-20T23:45:07.632Z,32.26
2018-08-20T23:47:40.339Z,32.32
2018-08-20T23:50:12.621Z,32.33
2018-08-20T23:52:44.649Z,32.30
2018-08-20T23:55:16.934Z,32.24
2018-08-20T23:57:49.266Z,32.23
